Terminal Aerodrome Forecast
Issued by NWS

Home | Current Version | Previous Version | Text Only | Print | Product List | Glossary On
Versions: 1 2 3 4 5 6 7 8 9 10
000
FTUS42 TJSJ 281100
TAFKPK
TAF
TKPK 281139Z 2812/2912 03008KT P6SM VCSH SCT022 SCT035
     FM281500 07013KT P6SM VCSH SCT025 SCT045
     FM282300 08010KT P6SM FEW020 FEW030=

USA.gov is the U.S. government's official web portal to all federal, state and local government web resources and services.